Time;durP1;ratioP1;P1;durP2;ratioP2;P2;SDS_P1;SDS_P2;PMS_P1;PMS_P2;Temp;Humidity;BMP_temperature;BMP_pressure;BME280_temperature;BME280_humidity;BME280_pressure;Samples;Min_cycle;Max_cycle;Signal;HPM_P1;HPM_P2
2022/03/20 00:00:12;;;;;;;6.07;3.77;;;;;;;0.45;54.50;96584.44;5031509;28;20204;-62
2022/03/20 00:02:38;;;;;;;6.63;3.67;;;;;;;0.52;53.48;96606.03;5032090;28;20226;-62
2022/03/20 00:05:04;;;;;;;7.00;3.97;;;;;;;0.53;53.61;96595.16;5031550;28;20277;-65
2022/03/20 00:07:34;;;;;;;6.47;3.93;;;;;;;0.47;53.79;96585.25;5031588;28;20201;-62
2022/03/20 00:10:01;;;;;;;9.17;5.27;;;;;;;0.48;54.30;96591.94;5031127;28;20344;-60
2022/03/20 00:12:27;;;;;;;6.27;3.97;;;;;;;0.33;54.31;96574.63;5031342;28;20598;-59
2022/03/20 00:14:52;;;;;;;11.07;4.60;;;;;;;0.38;53.74;96606.25;5031252;28;20283;-60
2022/03/20 00:17:20;;;;;;;5.77;3.80;;;;;;;0.53;52.64;96623.53;5032144;28;20210;-62
2022/03/20 00:19:46;;;;;;;10.10;3.97;;;;;;;0.13;54.75;96574.91;5013836;28;20197;-63
2022/03/20 00:22:12;;;;;;;7.17;3.40;;;;;;;0.10;53.64;96609.13;5031383;28;20272;-61
2022/03/20 00:24:41;;;;;;;7.47;4.13;;;;;;;-0.18;52.92;96566.97;5032557;28;20314;-60
2022/03/20 00:27:12;;;;;;;5.53;4.07;;;;;;;-0.06;54.55;96590.97;5035645;28;20680;-61
2022/03/20 00:29:39;;;;;;;6.03;3.90;;;;;;;0.07;53.91;96599.16;5035075;28;20563;-62
2022/03/20 00:32:06;;;;;;;6.97;4.20;;;;;;;-0.10;53.48;96605.19;5035725;28;20189;-62
2022/03/20 00:34:31;;;;;;;6.50;4.07;;;;;;;-0.19;54.17;96595.31;5035084;28;20691;-63
2022/03/20 00:36:57;;;;;;;7.97;4.47;;;;;;;-0.40;55.30;96585.56;5035265;28;20209;-62
2022/03/20 00:39:22;;;;;;;5.70;4.20;;;;;;;-0.48;57.03;96537.38;5035174;28;20728;-63
2022/03/20 00:41:48;;;;;;;6.47;3.70;;;;;;;-0.39;55.19;96566.41;5035274;28;20181;-62
2022/03/20 00:44:13;;;;;;;6.80;3.90;;;;;;;-0.55;55.57;96565.78;5034847;28;20212;-63
2022/03/20 00:46:39;;;;;;;6.17;4.20;;;;;;;-0.61;55.15;96575.81;5035251;28;20255;-63
2022/03/20 00:49:05;;;;;;;7.30;4.27;;;;;;;-0.61;56.00;96555.00;5041015;23;20294;-61
2022/03/20 00:51:31;;;;;;;6.97;4.00;;;;;;;-0.67;55.80;96563.41;5034820;28;20204;-61
2022/03/20 00:53:57;;;;;;;7.17;4.07;;;;;;;-0.63;56.16;96564.19;5017062;28;20181;-61
2022/03/20 00:56:22;;;;;;;7.87;4.20;;;;;;;-0.67;55.76;96558.41;5034813;28;20206;-60
2022/03/20 00:58:48;;;;;;;8.77;4.63;;;;;;;-0.55;55.34;96568.25;5034592;28;20285;-62
2022/03/20 01:01:14;;;;;;;8.70;4.57;;;;;;;-0.63;57.31;96549.22;5035075;28;20204;-61
2022/03/20 01:03:41;;;;;;;8.97;4.50;;;;;;;-0.65;58.79;96521.78;5034723;28;20181;-59
2022/03/20 01:06:07;;;;;;;7.30;3.77;;;;;;;-0.67;60.64;96485.16;5034578;28;20210;-63
2022/03/20 01:08:37;;;;;;;5.87;3.27;;;;;;;-0.47;58.67;96516.56;5034766;28;20296;-62
2022/03/20 01:11:04;;;;;;;6.77;3.40;;;;;;;-0.50;58.00;96541.56;5034288;28;20744;-60
2022/03/20 01:13:30;;;;;;;8.50;4.40;;;;;;;-0.43;57.50;96548.16;5034338;28;20565;-60
2022/03/20 01:15:56;;;;;;;4.60;3.50;;;;;;;-0.43;57.66;96537.31;5034570;28;20201;-60
2022/03/20 01:18:22;;;;;;;7.10;3.70;;;;;;;-0.49;58.95;96523.25;5034361;28;20622;-60
2022/03/20 01:20:48;;;;;;;11.53;3.93;;;;;;;-0.39;58.23;96521.44;5034029;28;20596;-62
2022/03/20 01:23:14;;;;;;;8.67;4.23;;;;;;;-0.26;57.17;96543.75;5034794;28;20196;-62
2022/03/20 01:25:40;;;;;;;8.87;3.40;;;;;;;-0.17;55.59;96561.16;5034341;28;20679;-64
2022/03/20 01:28:05;;;;;;;6.17;3.93;;;;;;;-0.06;55.15;96579.31;5057722;23;20229;-65
2022/03/20 01:30:31;;;;;;;4.70;3.33;;;;;;;-0.07;54.53;96580.19;5053962;28;20196;-61
2022/03/20 01:32:57;;;;;;;7.47;4.23;;;;;;;-0.12;55.63;96561.06;5054356;28;20182;-60
2022/03/20 01:35:22;;;;;;;6.23;3.87;;;;;;;-0.11;56.15;96551.06;5053517;28;20198;-65
2022/03/20 01:37:47;;;;;;;4.73;3.40;;;;;;;0.04;56.17;96549.22;5053461;28;20238;-65
2022/03/20 01:40:21;;;;;;;6.20;4.03;;;;;;;0.15;56.66;96537.38;5053626;28;20221;-61
2022/03/20 01:42:48;;;;;;;8.23;3.97;;;;;;;0.24;56.96;96539.75;5053630;28;20189;-64
2022/03/20 01:45:19;;;;;;;7.67;3.90;;;;;;;0.29;56.12;96548.00;5052186;28;20262;-63
2022/03/20 01:47:47;;;;;;;7.13;4.33;;;;;;;0.28;57.01;96539.69;5053864;28;20191;-60
2022/03/20 01:50:14;;;;;;;6.90;3.80;;;;;;;0.28;54.71;96588.88;5053458;28;20201;-65
2022/03/20 01:52:40;;;;;;;5.97;3.97;;;;;;;0.51;53.59;96609.38;5053838;28;20269;-64
2022/03/20 01:55:07;;;;;;;7.47;4.00;;;;;;;0.33;53.94;96594.63;5053465;28;20285;-61
2022/03/20 01:57:37;;;;;;;7.03;3.63;;;;;;;0.01;53.76;96607.56;5053291;28;20209;-60
2022/03/20 02:00:07;;;;;;;9.93;3.90;;;;;;;-0.38;54.92;96578.88;5053216;28;20261;-60
2022/03/20 02:02:33;;;;;;;8.87;4.70;;;;;;;-0.57;55.42;96562.47;5053911;28;20184;-60
2022/03/20 02:04:59;;;;;;;7.47;4.63;;;;;;;-0.70;56.17;96563.41;5051927;28;20206;-65
2022/03/20 02:07:25;;;;;;;9.60;4.77;;;;;;;-0.78;56.65;96557.69;5053642;28;20544;-64
2022/03/20 02:09:51;;;;;;;8.57;4.60;;;;;;;-0.77;56.65;96549.38;5053262;28;20214;-60
2022/03/20 02:12:17;;;;;;;7.23;4.73;;;;;;;-0.76;57.80;96526.03;5053451;28;20181;-63
2022/03/20 02:14:43;;;;;;;8.57;4.73;;;;;;;-0.62;58.17;96525.88;5052862;28;20706;-62
2022/03/20 02:17:12;;;;;;;6.33;4.20;;;;;;;-0.51;56.58;96554.91;5053291;28;20184;-61
2022/03/20 02:19:39;;;;;;;7.27;4.57;;;;;;;-0.34;57.25;96550.53;5053104;28;20269;-62
2022/03/20 02:22:05;;;;;;;5.53;4.33;;;;;;;-0.25;56.19;96562.91;5053182;28;20550;-64
2022/03/20 02:24:40;;;;;;;6.43;4.13;;;;;;;-0.13;55.68;96580.25;5035231;28;20270;-61
2022/03/20 02:27:09;;;;;;;8.63;4.07;;;;;;;-0.19;56.10;96569.50;5052775;28;20224;-60
2022/03/20 02:29:35;;;;;;;8.27;5.20;;;;;;;-0.27;55.00;96577.09;5052926;28;20228;-60
2022/03/20 02:32:04;;;;;;;9.53;4.33;;;;;;;-0.47;56.84;96538.19;5052874;28;20241;-65
2022/03/20 02:34:31;;;;;;;8.90;4.50;;;;;;;-0.41;57.47;96538.13;5052901;28;20296;-63
2022/03/20 02:36:58;;;;;;;10.00;4.60;;;;;;;-0.26;56.28;96556.25;5053263;28;20181;-62
2022/03/20 02:39:24;;;;;;;8.20;4.87;;;;;;;-0.14;56.34;96548.59;5053021;28;20211;-64
2022/03/20 02:41:51;;;;;;;6.37;4.43;;;;;;;-0.03;55.54;96558.47;5053053;28;20549;-61
2022/03/20 02:44:17;;;;;;;9.10;4.77;;;;;;;0.12;55.56;96560.78;5052485;28;20195;-63
2022/03/20 02:46:43;;;;;;;6.93;4.23;;;;;;;0.09;55.84;96549.97;5051213;28;20188;-61
2022/03/20 02:49:10;;;;;;;6.87;4.60;;;;;;;0.07;55.71;96552.50;5052126;28;20262;-61
2022/03/20 02:51:36;;;;;;;9.17;4.67;;;;;;;0.01;56.08;96547.56;5052661;28;20186;-64
2022/03/20 02:54:05;;;;;;;6.83;4.60;;;;;;;0.04;56.67;96535.06;5052702;28;20189;-62
2022/03/20 02:56:32;;;;;;;8.07;5.20;;;;;;;0.05;54.97;96578.34;5052555;28;20191;-63
2022/03/20 02:58:58;;;;;;;6.20;4.63;;;;;;;-0.15;54.84;96568.63;5051439;28;20566;-63
2022/03/20 03:01:24;;;;;;;9.27;4.77;;;;;;;-0.18;57.79;96527.00;5034385;28;20205;-61
2022/03/20 03:03:53;;;;;;;7.70;4.80;;;;;;;0.05;57.28;96528.34;5050957;28;20680;-61
2022/03/20 03:06:20;;;;;;;7.57;5.07;;;;;;;-0.11;56.00;96546.06;5052191;28;20198;-61
2022/03/20 03:11:29;;;;;;;9.17;5.23;;;;;;;-0.05;56.75;96546.00;5052214;28;20285;-60
2022/03/20 03:13:55;;;;;;;10.30;4.67;;;;;;;-0.21;57.06;96527.03;5052341;28;20268;-64
2022/03/20 03:16:20;;;;;;;10.37;5.13;;;;;;;-0.10;55.64;96540.22;5052026;28;20205;-64
2022/03/20 03:18:47;;;;;;;5.97;4.47;;;;;;;-0.23;57.04;96527.91;5052052;28;20184;-64
2022/03/20 03:21:15;;;;;;;8.93;4.30;;;;;;;-0.19;56.36;96549.50;5051793;28;20228;-61
2022/03/20 03:23:41;;;;;;;7.33;4.53;;;;;;;-0.44;56.39;96551.47;5052312;28;20192;-61
2022/03/20 03:26:07;;;;;;;7.30;4.40;;;;;;;-0.84;55.89;96557.75;5051867;28;20204;-63
2022/03/20 03:28:36;;;;;;;8.07;4.20;;;;;;;-1.00;56.42;96561.22;5052099;28;20220;-63
2022/03/20 03:31:07;;;;;;;8.37;4.50;;;;;;;-1.06;57.31;96536.34;5051840;28;20699;-61
2022/03/20 03:33:34;;;;;;;8.80;4.20;;;;;;;-0.98;56.31;96559.56;5051793;28;20223;-65
2022/03/20 03:36:01;;;;;;;12.30;4.30;;;;;;;-0.87;55.66;96571.06;5051881;28;20205;-60
2022/03/20 03:38:34;;;;;;;10.53;4.57;;;;;;;-1.02;57.30;96547.94;5050815;28;20200;-62
2022/03/20 03:40:59;;;;;;;8.60;4.63;;;;;;;-0.78;56.52;96555.19;5051567;28;20336;-62
2022/03/20 03:43:26;;;;;;;9.07;4.80;;;;;;;-0.71;56.39;96568.44;5050235;28;20243;-63
2022/03/20 03:45:53;;;;;;;7.73;4.97;;;;;;;-0.66;55.91;96564.22;5050563;28;20298;-61
2022/03/20 03:48:19;;;;;;;7.97;4.60;;;;;;;-0.57;56.64;96549.13;5050305;28;20576;-62
2022/03/20 03:50:47;;;;;;;7.20;4.40;;;;;;;-1.02;56.86;96488.06;5051726;28;20655;-60
2022/03/20 03:53:13;;;;;;;9.60;4.63;;;;;;;-0.59;56.33;96561.66;5052150;28;20318;-62
2022/03/20 03:55:44;;;;;;;9.77;4.80;;;;;;;-0.40;55.66;96575.56;5051300;28;20215;-60
2022/03/20 03:58:10;;;;;;;5.80;4.37;;;;;;;-0.78;55.68;96522.72;5050318;28;20288;-63
2022/03/20 04:00:36;;;;;;;7.83;4.93;;;;;;;-0.32;56.98;96543.84;5045943;23;20311;-64
2022/03/20 04:03:03;;;;;;;8.27;4.60;;;;;;;-0.15;57.71;96546.97;5031320;28;20181;-60
2022/03/20 04:05:29;;;;;;;8.13;4.73;;;;;;;-0.16;57.23;96550.28;5031629;28;20267;-64
2022/03/20 04:07:55;;;;;;;9.17;5.83;;;;;;;-1.18;61.43;96484.06;5031623;28;20726;-64
2022/03/20 04:10:21;;;;;;;10.50;6.57;;;;;;;-0.93;61.44;96480.50;5031358;28;20556;-64
2022/03/20 04:12:47;;;;;;;11.80;6.73;;;;;;;-0.66;59.84;96504.28;5031360;28;20539;-65
2022/03/20 04:15:21;;;;;;;10.80;6.60;;;;;;;-0.46;59.15;96512.38;5031645;28;20293;-65
2022/03/20 04:17:47;;;;;;;10.30;6.13;;;;;;;-0.36;60.09;96502.25;5031356;28;20608;-65
2022/03/20 04:20:13;;;;;;;11.13;6.63;;;;;;;-1.16;60.54;96495.69;5031326;28;20212;-65
2022/03/20 04:23:42;;;;;;;11.67;6.43;;;;;;;-1.32;61.13;96495.84;5031029;28;20178;-64
2022/03/20 04:25:27;;;;;;;12.37;7.13;;;;;;;-0.89;61.44;96497.09;5031232;28;20288;-65
2022/03/20 04:27:56;;;;;;;11.60;7.40;;;;;;;-0.53;58.94;96531.63;5013323;28;20188;-61
2022/03/20 04:30:24;;;;;;;10.23;7.07;;;;;;;-0.46;59.25;96525.69;5031011;28;20202;-61
2022/03/20 04:32:51;;;;;;;16.30;7.27;;;;;;;-0.37;58.34;96525.59;5013642;28;20176;-61
2022/03/20 04:35:16;;;;;;;10.20;6.50;;;;;;;-0.09;58.99;96538.53;5031295;28;20201;-60
2022/03/20 04:37:44;;;;;;;12.27;7.10;;;;;;;-0.20;58.31;96546.19;5031115;28;20185;-63
2022/03/20 04:40:10;;;;;;;14.83;6.97;;;;;;;-0.08;57.43;96555.19;5031626;28;20210;-62
2022/03/20 04:42:36;;;;;;;13.60;6.57;;;;;;;-0.12;57.33;96558.56;5031486;28;20582;-60
2022/03/20 04:45:04;;;;;;;13.43;7.70;;;;;;;-0.22;57.30;96542.88;5031092;28;20213;-64
2022/03/20 04:58:31;;;;;;;15.87;7.97;;;;;;;-0.24;58.91;96554.56;5031111;28;20200;-60
2022/03/20 05:00:57;;;;;;;10.33;7.27;;;;;;;-0.13;59.82;96527.78;5031115;28;20745;-61
2022/03/20 05:03:24;;;;;;;16.00;7.63;;;;;;;-0.18;59.69;96532.00;5030855;28;20186;-61
2022/03/20 05:05:49;;;;;;;14.10;8.20;;;;;;;-0.01;61.38;96515.09;5037208;23;20256;-63
2022/03/20 05:08:15;;;;;;;14.80;9.20;;;;;;;-0.02;60.59;96527.59;5030797;28;20199;-61
2022/03/20 05:13:24;;;;;;;11.50;6.40;;;;;;;0.12;58.37;96554.94;5034828;28;20197;-61
2022/03/20 05:15:54;;;;;;;12.37;7.07;;;;;;;-0.11;60.38;96526.06;5034682;28;20279;-61
2022/03/20 05:18:20;;;;;;;14.60;7.70;;;;;;;-0.06;60.22;96534.31;5034453;28;20194;-60
2022/03/20 05:20:45;;;;;;;14.97;7.10;;;;;;;-0.01;59.00;96557.59;5034217;28;20260;-60
2022/03/20 05:23:11;;;;;;;13.93;6.50;;;;;;;-0.02;60.41;96538.44;5016519;28;20178;-59
2022/03/20 05:25:37;;;;;;;12.77;7.40;;;;;;;0.21;59.93;96552.28;5034780;28;20219;-64
2022/03/20 05:28:04;;;;;;;12.53;6.87;;;;;;;0.25;58.01;96583.91;5034546;28;20218;-62
2022/03/20 05:30:30;;;;;;;13.93;7.07;;;;;;;0.12;58.20;96569.94;5016400;28;20209;-60
2022/03/20 05:32:56;;;;;;;11.10;7.13;;;;;;;0.17;59.31;96568.19;5034605;28;20209;-60
2022/03/20 05:35:21;;;;;;;15.97;8.03;;;;;;;0.32;59.12;96566.31;5032648;28;20301;-60
2022/03/20 05:37:47;;;;;;;18.07;7.67;;;;;;;0.26;60.16;96533.06;5034237;28;20182;-61
2022/03/20 05:40:14;;;;;;;14.83;8.20;;;;;;;0.47;58.93;96573.56;5033716;28;20214;-61
2022/03/20 05:42:40;;;;;;;15.13;8.43;;;;;;;0.47;58.62;96587.75;5033909;28;20182;-60
2022/03/20 05:45:07;;;;;;;13.70;8.17;;;;;;;0.63;60.02;96562.50;5016177;28;20217;-65
2022/03/20 05:47:33;;;;;;;13.33;8.07;;;;;;;0.68;59.64;96569.94;5033842;28;20313;-64
2022/03/20 05:50:00;;;;;;;13.33;7.57;;;;;;;0.22;59.83;96566.47;5033697;28;20279;-61
2022/03/20 05:52:30;;;;;;;17.40;8.57;;;;;;;0.29;61.24;96548.84;5034003;28;20699;-64
2022/03/20 05:54:56;;;;;;;14.40;8.33;;;;;;;0.60;57.90;96604.25;5033696;28;20353;-65
2022/03/20 06:00:06;;;;;;;16.00;8.60;;;;;;;0.85;58.38;96605.53;5034467;28;20217;-63
2022/03/20 06:02:32;;;;;;;17.67;8.70;;;;;;;0.83;58.25;96587.19;5033472;28;20645;-63
2022/03/20 06:04:57;;;;;;;20.50;8.93;;;;;;;1.02;57.53;96618.59;5033882;28;20568;-61
2022/03/20 06:07:23;;;;;;;15.77;8.97;;;;;;;0.98;57.82;96601.97;5033541;28;20197;-64
2022/03/20 06:09:48;;;;;;;14.10;8.40;;;;;;;1.14;57.62;96613.41;5033298;28;20210;-64
2022/03/20 06:12:14;;;;;;;16.60;8.17;;;;;;;1.27;58.24;96597.28;5016077;28;20236;-61
2022/03/20 06:14:40;;;;;;;15.33;7.83;;;;;;;1.34;57.26;96623.06;5033842;28;20210;-63
2022/03/20 06:17:06;;;;;;;15.70;8.80;;;;;;;1.22;56.69;96634.13;5033329;28;20172;-64
2022/03/20 06:19:31;;;;;;;14.13;8.87;;;;;;;0.96;57.80;96610.34;5015556;28;20645;-63
2022/03/20 06:21:57;;;;;;;18.57;9.63;;;;;;;1.11;57.56;96612.63;5014669;28;20548;-65
2022/03/20 06:24:22;;;;;;;17.97;9.70;;;;;;;1.01;57.66;96611.13;5041093;23;20703;-65
2022/03/20 06:26:48;;;;;;;16.27;8.60;;;;;;;0.94;57.53;96612.06;5053182;28;20682;-64
2022/03/20 06:29:13;;;;;;;21.73;8.83;;;;;;;0.84;58.02;96604.72;5052884;28;20237;-62
2022/03/20 06:31:39;;;;;;;13.77;8.67;;;;;;;0.95;56.32;96629.56;5052922;28;20191;-61
2022/03/20 06:34:04;;;;;;;18.00;8.60;;;;;;;1.32;55.55;96647.31;5052758;28;20189;-65
2022/03/20 06:36:30;;;;;;;19.30;8.97;;;;;;;1.30;55.75;96649.03;5051714;28;20182;-62
2022/03/20 06:38:56;;;;;;;11.30;5.33;;;;;;;1.48;51.15;96691.31;5052813;28;20675;-62
2022/03/20 06:41:22;;;;;;;6.87;4.80;;;;;;;1.41;49.96;96735.72;5052738;28;20201;-61
2022/03/20 06:43:49;;;;;;;8.37;5.50;;;;;;;1.37;49.80;96738.28;5052739;28;20178;-61
2022/03/20 06:46:14;;;;;;;9.00;5.17;;;;;;;1.48;51.03;96711.34;5053020;28;20569;-61
2022/03/20 06:48:39;;;;;;;9.03;5.40;;;;;;;1.65;50.59;96717.75;5051261;28;20214;-63
2022/03/20 06:51:05;;;;;;;7.23;4.53;;;;;;;1.85;50.13;96727.44;5053159;28;20240;-60
2022/03/20 06:53:32;;;;;;;7.07;4.53;;;;;;;2.02;50.08;96722.13;5053226;28;20207;-62
2022/03/20 06:55:58;;;;;;;8.87;5.10;;;;;;;1.93;49.74;96723.09;5052947;28;20764;-65
2022/03/20 06:58:24;;;;;;;9.93;5.23;;;;;;;1.90;48.37;96752.44;5052463;28;20221;-65
2022/03/20 07:00:50;;;;;;;12.43;4.93;;;;;;;2.00;51.55;96723.84;5052710;28;20198;-66
2022/03/20 07:03:16;;;;;;;6.37;4.13;;;;;;;1.84;47.99;96768.38;5052409;28;20213;-61
2022/03/20 07:05:42;;;;;;;6.73;4.23;;;;;;;1.63;48.26;96742.03;5051084;28;20298;-61
2022/03/20 07:08:08;;;;;;;11.37;5.10;;;;;;;1.46;50.00;96705.53;5052257;28;20359;-61
2022/03/20 07:10:42;;;;;;;9.00;5.27;;;;;;;1.64;48.74;96732.81;5050866;28;20200;-63
2022/03/20 07:15:53;;;;;;;7.80;4.30;;;;;;;1.86;48.94;96733.28;5053386;28;20691;-64
2022/03/20 07:18:20;;;;;;;7.67;5.13;;;;;;;2.00;48.14;96743.91;5052462;28;20184;-66
2022/03/20 07:20:47;;;;;;;8.53;4.97;;;;;;;2.09;49.01;96724.47;5050910;28;20204;-62
2022/03/20 07:23:14;;;;;;;7.70;5.07;;;;;;;2.18;49.52;96718.47;5052146;28;20209;-65
2022/03/20 07:31:09;;;;;;;8.43;4.73;;;;;;;2.65;47.72;96737.63;5052668;28;20204;-60
2022/03/20 07:33:35;;;;;;;11.53;5.97;;;;;;;2.61;48.44;96739.34;5050308;28;20186;-63
2022/03/20 07:36:01;;;;;;;10.10;5.07;;;;;;;2.55;47.84;96734.44;5051906;28;20205;-60
2022/03/20 07:38:27;;;;;;;7.30;4.60;;;;;;;2.37;47.67;96732.31;5050655;28;20657;-64
2022/03/20 07:40:53;;;;;;;8.03;4.83;;;;;;;2.56;46.10;96756.19;5047464;23;20239;-61
2022/03/20 07:43:19;;;;;;;9.87;5.33;;;;;;;2.63;46.53;96752.69;5031700;28;20751;-60
2022/03/20 07:45:45;;;;;;;9.60;5.33;;;;;;;2.34;46.22;96749.94;5031978;28;20293;-61
2022/03/20 07:48:11;;;;;;;9.17;5.60;;;;;;;2.43;46.65;96727.16;5031665;28;20241;-60
2022/03/20 07:50:38;;;;;;;9.80;5.30;;;;;;;2.45;48.05;96710.38;5038166;23;20321;-61
2022/03/20 07:53:04;;;;;;;6.97;4.03;;;;;;;2.63;47.89;96699.16;5031514;28;20275;-64
2022/03/20 07:55:29;;;;;;;10.10;5.77;;;;;;;2.67;45.92;96740.94;5031549;28;20218;-63
2022/03/20 07:57:55;;;;;;;9.23;5.17;;;;;;;2.70;46.56;96728.28;5031592;28;20221;-63
2022/03/20 08:00:22;;;;;;;7.80;4.73;;;;;;;2.68;47.82;96687.31;5031397;28;20232;-64
2022/03/20 08:02:53;;;;;;;12.17;5.33;;;;;;;2.77;48.03;96682.94;5013783;28;20648;-61
2022/03/20 08:05:20;;;;;;;7.53;4.77;;;;;;;2.92;46.18;96729.50;5032029;28;20210;-61
2022/03/20 08:07:46;;;;;;;11.33;4.80;;;;;;;3.02;46.00;96719.22;5013700;28;20186;-61
2022/03/20 08:10:13;;;;;;;8.57;4.77;;;;;;;2.90;45.37;96744.59;5031938;28;20213;-60
2022/03/20 08:12:39;;;;;;;7.83;4.57;;;;;;;2.64;44.69;96720.88;5031515;28;20221;-63
2022/03/20 08:15:07;;;;;;;8.47;4.63;;;;;;;2.58;45.97;96708.47;5032025;28;20277;-63
2022/03/20 08:17:42;;;;;;;10.53;5.03;;;;;;;2.67;45.64;96704.06;5031378;28;20182;-63
2022/03/20 08:20:09;;;;;;;9.70;5.80;;;;;;;2.84;47.58;96679.44;5013860;28;20235;-61
2022/03/20 08:22:34;;;;;;;9.30;4.80;;;;;;;2.89;46.20;96687.69;5031336;28;20578;-63
2022/03/20 08:25:00;;;;;;;7.10;4.70;;;;;;;2.40;44.53;96697.13;5031854;28;20296;-63
2022/03/20 08:27:26;;;;;;;6.47;3.97;;;;;;;2.84;44.95;96701.19;5031446;28;20205;-64
2022/03/20 08:29:59;;;;;;;10.03;4.70;;;;;;;2.94;44.12;96715.22;5031805;28;20292;-64
2022/03/20 08:32:25;;;;;;;11.90;4.50;;;;;;;3.07;43.58;96721.63;5031230;28;20672;-64
2022/03/20 08:34:52;;;;;;;6.63;4.10;;;;;;;2.95;44.01;96702.59;5013791;28;20220;-65
2022/03/20 08:37:17;;;;;;;7.40;4.13;;;;;;;2.92;45.30;96685.13;5031194;28;20178;-64
2022/03/20 08:39:43;;;;;;;8.37;4.27;;;;;;;3.11;45.47;96670.44;5031171;28;20231;-63
2022/03/20 08:42:08;;;;;;;7.63;4.30;;;;;;;3.40;45.96;96668.06;5031558;28;20261;-61
2022/03/20 08:44:34;;;;;;;8.73;4.80;;;;;;;3.69;43.05;96712.59;5031370;28;20569;-65
2022/03/20 08:47:00;;;;;;;6.77;4.37;;;;;;;3.94;42.74;96711.13;5034764;28;20182;-64
2022/03/20 08:49:26;;;;;;;7.17;4.40;;;;;;;4.07;42.28;96707.41;5035069;28;20308;-62
2022/03/20 08:51:51;;;;;;;6.10;3.80;;;;;;;4.21;41.08;96721.28;5034699;28;20190;-64
2022/03/20 08:54:17;;;;;;;7.23;3.73;;;;;;;4.31;39.30;96736.13;5016756;28;20194;-60
2022/03/20 08:56:42;;;;;;;4.77;3.70;;;;;;;4.49;41.70;96655.88;5034729;28;20641;-60
2022/03/20 08:59:08;;;;;;;7.80;3.40;;;;;;;4.87;40.53;96685.81;5016949;28;20281;-60
2022/03/20 09:01:33;;;;;;;8.97;3.83;;;;;;;5.05;39.67;96675.16;5034710;28;20660;-60
2022/03/20 09:03:59;;;;;;;6.33;2.93;;;;;;;5.36;38.55;96684.28;5034486;28;20555;-61
2022/03/20 09:06:25;;;;;;;4.50;3.17;;;;;;;5.73;35.88;96693.16;5034854;28;20198;-63
2022/03/20 09:08:51;;;;;;;6.20;3.73;;;;;;;5.80;35.71;96676.91;5034836;28;20756;-63
2022/03/20 09:11:18;;;;;;;5.30;3.53;;;;;;;6.25;37.24;96628.25;5034462;28;20608;-59
2022/03/20 09:13:43;;;;;;;4.83;3.20;;;;;;;6.33;34.71;96659.13;5034524;28;20275;-60
2022/03/20 09:19:00;;;;;;;5.87;3.03;;;;;;;6.23;33.97;96653.56;5034667;28;20222;-62
2022/03/20 09:21:34;;;;;;;3.97;2.93;;;;;;;6.28;34.11;96633.22;5016745;28;20211;-63
2022/03/20 09:24:05;;;;;;;4.97;3.33;;;;;;;6.25;35.29;96621.53;5015995;28;20224;-63
2022/03/20 09:26:31;;;;;;;4.27;3.20;;;;;;;6.36;35.60;96594.16;5017698;28;20249;-63
2022/03/20 09:28:57;;;;;;;5.87;3.53;;;;;;;6.59;34.55;96599.19;5034674;28;20220;-64
2022/03/20 09:31:27;;;;;;;4.50;3.37;;;;;;;7.00;34.46;96609.38;5034389;28;20690;-64
2022/03/20 09:33:53;;;;;;;4.93;3.23;;;;;;;7.42;37.02;96572.25;5016199;28;20198;-66
2022/03/20 09:36:19;;;;;;;6.17;3.43;;;;;;;8.93;42.56;96598.41;5048957;23;20317;-64
2022/03/20 09:38:45;;;;;;;5.23;3.57;;;;;;;9.12;34.12;96604.28;5014459;28;20257;-64
2022/03/20 09:41:11;;;;;;;5.30;3.63;;;;;;;8.85;32.90;96596.25;5014633;28;20206;-64
2022/03/20 09:43:42;;;;;;;4.27;2.80;;;;;;;8.73;33.35;96575.69;5029502;28;20273;-63
2022/03/20 09:46:07;;;;;;;5.83;3.67;;;;;;;8.90;33.08;96573.22;5014452;28;20218;-64
2022/03/20 09:48:34;;;;;;;10.90;3.07;;;;;;;9.02;32.18;96568.38;5013848;28;20211;-61
2022/03/20 09:51:01;;;;;;;5.90;3.17;;;;;;;8.53;32.18;96560.59;5014521;28;20214;-61
2022/03/20 09:53:28;;;;;;;5.63;3.43;;;;;;;8.61;31.70;96564.44;5013977;28;20183;-64
2022/03/20 09:55:55;;;;;;;6.57;3.70;;;;;;;8.72;32.45;96536.03;5014311;28;20219;-66
2022/03/20 09:58:26;;;;;;;4.57;3.33;;;;;;;8.48;31.21;96559.09;5013152;28;20209;-60
2022/03/20 10:00:55;;;;;;;4.20;2.90;;;;;;;8.50;31.08;96548.09;5013016;28;20206;-60
2022/03/20 10:03:24;;;;;;;4.07;2.80;;;;;;;7.52;30.76;96550.72;5013356;28;20544;-65
2022/03/20 10:06:05;;;;;;;5.13;3.03;;;;;;;8.08;30.33;96551.63;5013660;28;20215;-65
2022/03/20 10:08:30;;;;;;;3.90;3.03;;;;;;;7.94;30.12;96550.63;5013851;28;20237;-64
2022/03/20 10:11:12;;;;;;;5.20;2.93;;;;;;;8.62;29.50;96550.88;5012419;28;20207;-66
2022/03/20 10:13:37;;;;;;;4.90;3.20;;;;;;;8.78;30.99;96534.06;5013648;28;20163;-65
2022/03/20 10:16:17;;;;;;;4.17;3.00;;;;;;;9.04;29.66;96538.69;5013928;28;20513;-65
2022/03/20 10:18:42;;;;;;;5.40;2.77;;;;;;;9.03;29.56;96531.16;5012415;28;20182;-65
2022/03/20 10:21:09;;;;;;;3.67;2.93;;;;;;;9.15;28.95;96533.09;5014028;28;20210;-65
2022/03/20 10:23:38;;;;;;;5.00;3.33;;;;;;;9.27;29.55;96535.84;5013577;28;20213;-66
2022/03/20 10:26:27;;;;;;;6.80;3.10;;;;;;;9.32;30.43;96513.59;5013906;28;20213;-66
2022/03/20 10:28:52;;;;;;;4.73;3.93;;;;;;;8.81;29.53;96528.00;5013382;28;20195;-65
2022/03/20 10:31:22;;;;;;;7.90;3.30;;;;;;;8.93;28.65;96520.63;5012150;28;20210;-66
2022/03/20 10:34:05;;;;;;;4.10;3.13;;;;;;;9.12;29.06;96518.00;5013369;28;20163;-67
2022/03/20 10:36:33;;;;;;;4.57;3.17;;;;;;;9.24;30.64;96503.00;5012241;28;20197;-66
2022/03/20 10:38:59;;;;;;;3.83;3.30;;;;;;;8.93;29.68;96495.25;5012000;28;20233;-66
2022/03/20 10:41:34;;;;;;;4.83;3.37;;;;;;;9.25;29.92;96497.03;5013310;28;20627;-65
2022/03/20 10:44:20;;;;;;;5.43;3.57;;;;;;;9.38;29.63;96509.94;5013155;28;20201;-65
2022/03/20 10:46:56;;;;;;;6.83;3.13;;;;;;;9.44;28.92;96513.88;5013094;28;20657;-66
2022/03/20 10:49:22;;;;;;;5.03;3.47;;;;;;;9.78;29.56;96509.53;5011419;28;20214;-66
2022/03/20 10:52:07;;;;;;;5.60;3.33;;;;;;;9.99;29.14;96497.44;5012876;28;20704;-64
2022/03/20 10:54:59;;;;;;;5.13;3.50;;;;;;;10.29;27.40;96518.72;5012736;28;20752;-65
2022/03/20 10:57:35;;;;;;;6.93;3.37;;;;;;;9.76;28.75;96491.00;5009051;28;20198;-65
2022/03/20 11:00:07;;;;;;;7.30;3.70;;;;;;;9.90;29.68;96480.13;5011580;28;20232;-66
2022/03/20 11:02:36;;;;;;;5.33;3.83;;;;;;;9.66;29.13;96494.94;5012807;28;20168;-65
2022/03/20 11:05:02;;;;;;;3.93;3.40;;;;;;;9.37;28.41;96480.38;5012717;28;20230;-65
2022/03/20 11:07:28;;;;;;;4.97;3.73;;;;;;;9.26;29.04;96468.22;5012512;28;20256;-64
2022/03/20 11:09:55;;;;;;;4.77;3.57;;;;;;;8.77;31.03;96448.72;5012117;28;20272;-65
2022/03/20 11:12:34;;;;;;;5.07;3.20;;;;;;;8.83;30.07;96470.41;5012615;28;20662;-64
2022/03/20 11:15:03;;;;;;;6.67;3.47;;;;;;;8.77;30.02;96456.31;5012722;28;20214;-64
2022/03/20 11:17:39;;;;;;;5.27;3.60;;;;;;;9.50;29.45;96466.16;5011019;28;20203;-66
2022/03/20 11:20:07;;;;;;;6.97;3.97;;;;;;;9.82;29.72;96462.75;5012791;28;20285;-65
2022/03/20 11:22:36;;;;;;;4.97;3.87;;;;;;;10.13;28.34;96467.88;5013067;28;20183;-64
2022/03/20 11:25:07;;;;;;;6.03;3.60;;;;;;;10.14;29.32;96446.63;5010841;28;20211;-64
2022/03/20 11:27:35;;;;;;;7.57;3.83;;;;;;;10.03;29.62;96448.09;5011366;28;20617;-65
2022/03/20 11:30:03;;;;;;;7.53;3.73;;;;;;;9.40;29.21;96457.38;5012319;28;20241;-64
2022/03/20 11:32:30;;;;;;;4.23;3.30;;;;;;;9.67;29.22;96445.78;5011980;28;20263;-64
2022/03/20 11:34:56;;;;;;;3.70;3.20;;;;;;;10.12;27.40;96457.78;5012280;28;20214;-65
2022/03/20 11:37:22;;;;;;;4.20;3.80;;;;;;;9.65;28.91;96439.97;5012100;28;20179;-63
2022/03/20 11:40:08;;;;;;;4.43;3.53;;;;;;;10.43;28.00;96445.06;5010714;28;20210;-64
2022/03/20 11:42:33;;;;;;;5.13;3.37;;;;;;;11.03;28.81;96450.94;5010729;28;20253;-64
2022/03/20 11:44:59;;;;;;;6.63;3.83;;;;;;;11.10;27.39;96439.50;5011922;28;20302;-64
2022/03/20 11:47:29;;;;;;;4.70;3.53;;;;;;;11.26;26.60;96447.88;5011880;28;20540;-65
2022/03/20 11:50:19;;;;;;;6.77;3.87;;;;;;;11.34;28.53;96412.59;5010567;28;20226;-64
2022/03/20 11:52:55;;;;;;;9.83;3.60;;;;;;;11.39;27.50;96440.34;5011989;28;20174;-64
2022/03/20 11:55:24;;;;;;;7.03;3.60;;;;;;;11.01;27.65;96434.13;5010579;28;20264;-64
2022/03/20 11:57:50;;;;;;;6.03;3.63;;;;;;;11.44;27.61;96430.69;5011718;28;20190;-65
2022/03/20 12:00:19;;;;;;;5.83;3.67;;;;;;;11.05;26.79;96430.50;5011923;28;20219;-64
2022/03/20 12:03:12;;;;;;;5.97;3.73;;;;;;;10.82;26.65;96427.56;5011781;28;20687;-64
2022/03/20 12:05:56;;;;;;;4.40;3.30;;;;;;;10.67;26.60;96430.97;5012152;28;20748;-64
2022/03/20 12:08:41;;;;;;;4.03;3.30;;;;;;;10.02;26.82;96426.13;5012111;28;20349;-63